sensor_id;sensor_type;location;lat;lon;timestamp;pressure;altitude;pressure_sealevel;temperature;humidity
13312;BME280;34033;48.672;9.376;2023-06-22T00:00:41;98526.84;;;25.12;66.30
13312;BME280;34033;48.672;9.376;2023-06-22T00:03:07;98528.59;;;25.10;66.50
13312;BME280;34033;48.672;9.376;2023-06-22T00:05:33;98522.56;;;25.08;66.21
13312;BME280;34033;48.672;9.376;2023-06-22T00:08:02;98524.75;;;25.13;66.14
13312;BME280;34033;48.672;9.376;2023-06-22T00:10:28;98517.69;;;24.99;66.92
13312;BME280;34033;48.672;9.376;2023-06-22T00:12:53;98513.38;;;25.04;66.65
13312;BME280;34033;48.672;9.376;2023-06-22T00:15:18;98516.22;;;25.04;66.70
13312;BME280;34033;48.672;9.376;2023-06-22T00:17:45;98518.47;;;25.00;66.53
13312;BME280;34033;48.672;9.376;2023-06-22T00:20:10;98512.56;;;25.03;66.70
13312;BME280;34033;48.672;9.376;2023-06-22T00:22:36;98513.69;;;25.06;66.51
13312;BME280;34033;48.672;9.376;2023-06-22T00:25:07;98515.88;;;25.11;66.11
13312;BME280;34033;48.672;9.376;2023-06-22T00:27:32;98526.09;;;25.03;66.55
13312;BME280;34033;48.672;9.376;2023-06-22T00:29:58;98515.44;;;25.03;66.52
13312;BME280;34033;48.672;9.376;2023-06-22T00:32:23;98515.56;;;25.09;66.27
13312;BME280;34033;48.672;9.376;2023-06-22T00:34:48;98530.38;;;25.07;66.19
13312;BME280;34033;48.672;9.376;2023-06-22T00:37:15;98528.97;;;25.03;66.16
13312;BME280;34033;48.672;9.376;2023-06-22T00:39:41;98517.69;;;24.99;65.90
13312;BME280;34033;48.672;9.376;2023-06-22T00:42:06;98518.97;;;24.98;66.46
13312;BME280;34033;48.672;9.376;2023-06-22T00:44:31;98523.59;;;24.96;66.43
13312;BME280;34033;48.672;9.376;2023-06-22T00:46:57;98518.22;;;24.88;66.63
13312;BME280;34033;48.672;9.376;2023-06-22T00:49:23;98505.34;;;24.93;66.30
13312;BME280;34033;48.672;9.376;2023-06-22T00:51:48;98498.34;;;24.94;66.28
13312;BME280;34033;48.672;9.376;2023-06-22T00:54:14;98492.28;;;25.01;66.15
13312;BME280;34033;48.672;9.376;2023-06-22T00:56:42;98488.63;;;25.01;65.96
13312;BME280;34033;48.672;9.376;2023-06-22T00:59:09;98485.81;;;24.91;66.07
13312;BME280;34033;48.672;9.376;2023-06-22T01:01:37;98502.50;;;24.84;66.71
13312;BME280;34033;48.672;9.376;2023-06-22T01:04:06;98515.22;;;24.83;66.48
13312;BME280;34033;48.672;9.376;2023-06-22T01:06:35;98525.25;;;24.78;66.96
13312;BME280;34033;48.672;9.376;2023-06-22T01:09:17;98531.78;;;24.79;67.09
13312;BME280;34033;48.672;9.376;2023-06-22T01:11:55;98525.38;;;24.84;67.14
13312;BME280;34033;48.672;9.376;2023-06-22T01:14:37;98532.72;;;24.76;67.42
13312;BME280;34033;48.672;9.376;2023-06-22T01:17:07;98536.38;;;24.76;67.42
13312;BME280;34033;48.672;9.376;2023-06-22T01:19:51;98527.06;;;24.67;67.69
13312;BME280;34033;48.672;9.376;2023-06-22T01:22:24;98522.59;;;24.75;67.67
13312;BME280;34033;48.672;9.376;2023-06-22T01:25:19;98529.13;;;24.66;67.51
13312;BME280;34033;48.672;9.376;2023-06-22T01:28:05;98546.19;;;24.51;68.44
13312;BME280;34033;48.672;9.376;2023-06-22T01:30:41;98539.91;;;24.29;69.41
13312;BME280;34033;48.672;9.376;2023-06-22T01:33:10;98541.47;;;24.39;69.08
13312;BME280;34033;48.672;9.376;2023-06-22T01:35:37;98532.72;;;24.43;68.91
13312;BME280;34033;48.672;9.376;2023-06-22T01:38:02;98537.63;;;24.42;69.22
13312;BME280;34033;48.672;9.376;2023-06-22T01:40:29;98536.38;;;24.43;69.12
13312;BME280;34033;48.672;9.376;2023-06-22T01:42:55;98527.13;;;24.48;68.64
13312;BME280;34033;48.672;9.376;2023-06-22T01:45:21;98520.88;;;24.59;68.16
13312;BME280;34033;48.672;9.376;2023-06-22T01:47:47;98528.19;;;24.60;67.93
13312;BME280;34033;48.672;9.376;2023-06-22T01:50:12;98518.69;;;24.54;68.28
13312;BME280;34033;48.672;9.376;2023-06-22T01:52:37;98519.16;;;24.62;67.96
13312;BME280;34033;48.672;9.376;2023-06-22T01:55:03;98519.28;;;24.67;67.91
13312;BME280;34033;48.672;9.376;2023-06-22T01:57:30;98515.63;;;24.67;67.97
13312;BME280;34033;48.672;9.376;2023-06-22T02:00:12;98521.34;;;24.67;68.19
13312;BME280;34033;48.672;9.376;2023-06-22T02:03:03;98518.81;;;24.60;68.23
13312;BME280;34033;48.672;9.376;2023-06-22T02:05:38;98529.84;;;24.52;68.60
13312;BME280;34033;48.672;9.376;2023-06-22T02:08:09;98530.31;;;24.50;68.64
13312;BME280;34033;48.672;9.376;2023-06-22T02:10:37;98532.56;;;24.46;68.82
13312;BME280;34033;48.672;9.376;2023-06-22T02:13:06;98526.06;;;24.46;68.66
13312;BME280;34033;48.672;9.376;2023-06-22T02:15:32;98528.13;;;24.45;68.67
13312;BME280;34033;48.672;9.376;2023-06-22T02:18:00;98526.53;;;24.44;68.66
13312;BME280;34033;48.672;9.376;2023-06-22T02:20:26;98527.78;;;24.52;68.38
13312;BME280;34033;48.672;9.376;2023-06-22T02:22:51;98534.28;;;24.53;68.27
13312;BME280;34033;48.672;9.376;2023-06-22T02:25:17;98529.53;;;24.50;68.33
13312;BME280;34033;48.672;9.376;2023-06-22T02:27:42;98549.34;;;24.53;68.17
13312;BME280;34033;48.672;9.376;2023-06-22T02:30:08;98543.81;;;24.50;67.99
13312;BME280;34033;48.672;9.376;2023-06-22T02:32:36;98540.00;;;24.53;67.78
13312;BME280;34033;48.672;9.376;2023-06-22T02:35:02;98518.69;;;24.54;68.05
13312;BME280;34033;48.672;9.376;2023-06-22T02:37:32;98517.47;;;24.46;68.16
13312;BME280;34033;48.672;9.376;2023-06-22T02:39:57;98532.91;;;24.39;68.18
13312;BME280;34033;48.672;9.376;2023-06-22T02:42:22;98541.31;;;24.34;68.85
13312;BME280;34033;48.672;9.376;2023-06-22T02:44:48;98543.53;;;24.39;68.38
13312;BME280;34033;48.672;9.376;2023-06-22T02:47:13;98526.06;;;24.46;67.99
13312;BME280;34033;48.672;9.376;2023-06-22T02:49:39;98522.41;;;24.45;68.21
13312;BME280;34033;48.672;9.376;2023-06-22T02:52:04;98517.81;;;24.39;68.44
13312;BME280;34033;48.672;9.376;2023-06-22T02:54:30;98522.91;;;24.35;68.80
13312;BME280;34033;48.672;9.376;2023-06-22T02:56:55;98533.06;;;24.36;68.84
13312;BME280;34033;48.672;9.376;2023-06-22T02:59:21;98524.78;;;24.38;68.28
13312;BME280;34033;48.672;9.376;2023-06-22T03:01:49;98519.41;;;24.40;68.02
13312;BME280;34033;48.672;9.376;2023-06-22T03:04:15;98517.81;;;24.39;67.74
13312;BME280;34033;48.672;9.376;2023-06-22T03:06:40;98509.28;;;24.30;67.82
13312;BME280;34033;48.672;9.376;2023-06-22T03:09:06;98495.16;;;24.26;67.98
13312;BME280;34033;48.672;9.376;2023-06-22T03:11:33;98501.25;;;24.19;68.61
13312;BME280;34033;48.672;9.376;2023-06-22T03:14:00;98502.03;;;24.20;68.39
13312;BME280;34033;48.672;9.376;2023-06-22T03:16:26;98500.09;;;24.17;68.77
13312;BME280;34033;48.672;9.376;2023-06-22T03:18:51;98498.56;;;23.97;69.40
13312;BME280;34033;48.672;9.376;2023-06-22T03:21:18;98484.97;;;23.74;70.10
13312;BME280;34033;48.672;9.376;2023-06-22T03:23:44;98491.00;;;23.67;70.51
13312;BME280;34033;48.672;9.376;2023-06-22T03:26:09;98493.72;;;23.52;71.19
13312;BME280;34033;48.672;9.376;2023-06-22T03:28:35;98497.34;;;23.44;71.49
13312;BME280;34033;48.672;9.376;2023-06-22T03:31:01;98489.91;;;23.37;72.00
13312;BME280;34033;48.672;9.376;2023-06-22T03:33:26;98488.66;;;23.47;71.59
13312;BME280;34033;48.672;9.376;2023-06-22T03:35:51;98493.72;;;23.61;70.97
13312;BME280;34033;48.672;9.376;2023-06-22T03:38:17;98495.13;;;23.75;70.20
13312;BME280;34033;48.672;9.376;2023-06-22T03:40:42;98488.41;;;23.87;69.50
13312;BME280;34033;48.672;9.376;2023-06-22T03:43:08;98491.75;;;23.95;69.06
13312;BME280;34033;48.672;9.376;2023-06-22T03:45:33;98488.84;;;24.04;68.38
13312;BME280;34033;48.672;9.376;2023-06-22T03:48:00;98492.19;;;24.11;68.07
13312;BME280;34033;48.672;9.376;2023-06-22T03:50:25;98491.69;;;24.13;67.99
13312;BME280;34033;48.672;9.376;2023-06-22T03:52:50;98494.38;;;24.17;67.27
13312;BME280;34033;48.672;9.376;2023-06-22T03:55:17;98489.94;;;24.25;67.38
13312;BME280;34033;48.672;9.376;2023-06-22T03:57:43;98489.59;;;24.32;66.89
13312;BME280;34033;48.672;9.376;2023-06-22T04:00:08;98494.81;;;24.33;66.84
13312;BME280;34033;48.672;9.376;2023-06-22T04:02:35;98491.34;;;24.29;67.14
13312;BME280;34033;48.672;9.376;2023-06-22T04:05:00;98489.03;;;24.19;67.71
13312;BME280;34033;48.672;9.376;2023-06-22T04:07:26;98492.66;;;24.19;67.83
13312;BME280;34033;48.672;9.376;2023-06-22T04:09:51;98490.28;;;24.18;68.52
13312;BME280;34033;48.672;9.376;2023-06-22T04:12:16;98492.88;;;23.88;69.75
13312;BME280;34033;48.672;9.376;2023-06-22T04:14:42;98481.66;;;23.76;70.17
13312;BME280;34033;48.672;9.376;2023-06-22T04:17:07;98477.41;;;23.53;71.24
13312;BME280;34033;48.672;9.376;2023-06-22T04:19:33;98469.78;;;23.32;72.82
13312;BME280;34033;48.672;9.376;2023-06-22T04:21:58;98477.38;;;23.16;73.25
13312;BME280;34033;48.672;9.376;2023-06-22T04:24:23;98473.41;;;23.05;73.94
13312;BME280;34033;48.672;9.376;2023-06-22T04:26:48;98472.94;;;22.97;74.51
13312;BME280;34033;48.672;9.376;2023-06-22T04:29:18;98466.75;;;22.90;75.10
13312;BME280;34033;48.672;9.376;2023-06-22T04:31:44;98453.28;;;22.81;75.44
13312;BME280;34033;48.672;9.376;2023-06-22T04:34:09;98458.66;;;22.79;75.87
13312;BME280;34033;48.672;9.376;2023-06-22T04:36:35;98465.59;;;22.78;75.79
13312;BME280;34033;48.672;9.376;2023-06-22T04:39:08;98465.59;;;22.78;75.89
13312;BME280;34033;48.672;9.376;2023-06-22T04:41:39;98458.00;;;22.75;75.66
13312;BME280;34033;48.672;9.376;2023-06-22T04:44:15;98451.97;;;22.73;76.37
13312;BME280;34033;48.672;9.376;2023-06-22T04:46:52;98450.09;;;22.79;76.33
13312;BME280;34033;48.672;9.376;2023-06-22T04:49:29;98439.34;;;22.83;76.07
13312;BME280;34033;48.672;9.376;2023-06-22T04:52:06;98441.38;;;22.82;76.25
13312;BME280;34033;48.672;9.376;2023-06-22T04:54:32;98439.34;;;22.83;76.06
13312;BME280;34033;48.672;9.376;2023-06-22T04:57:08;98427.13;;;22.82;75.89
13312;BME280;34033;48.672;9.376;2023-06-22T04:59:36;98439.03;;;22.81;75.95
13312;BME280;34033;48.672;9.376;2023-06-22T05:02:04;98432.19;;;22.78;75.91
13312;BME280;34033;48.672;9.376;2023-06-22T05:04:31;98434.59;;;22.80;76.42
13312;BME280;34033;48.672;9.376;2023-06-22T05:06:58;98422.56;;;22.85;76.52
13312;BME280;34033;48.672;9.376;2023-06-22T05:09:23;98427.63;;;22.90;76.23
13312;BME280;34033;48.672;9.376;2023-06-22T05:11:50;98423.34;;;22.95;75.87
13312;BME280;34033;48.672;9.376;2023-06-22T05:14:15;98415.13;;;22.97;75.76
13312;BME280;34033;48.672;9.376;2023-06-22T05:16:41;98425.44;;;23.03;75.39
13312;BME280;34033;48.672;9.376;2023-06-22T05:19:07;98421.94;;;23.08;75.43
13312;BME280;34033;48.672;9.376;2023-06-22T05:21:33;98421.31;;;23.04;74.82
13312;BME280;34033;48.672;9.376;2023-06-22T05:23:58;98407.97;;;23.10;74.76
13312;BME280;34033;48.672;9.376;2023-06-22T05:26:26;98404.38;;;23.10;74.72
13312;BME280;34033;48.672;9.376;2023-06-22T05:28:52;98405.28;;;23.16;74.61
13312;BME280;34033;48.672;9.376;2023-06-22T05:31:18;98406.72;;;23.20;74.63
13312;BME280;34033;48.672;9.376;2023-06-22T05:33:45;98402.91;;;23.23;74.38
13312;BME280;34033;48.672;9.376;2023-06-22T05:36:11;98397.53;;;23.25;73.98
13312;BME280;34033;48.672;9.376;2023-06-22T05:38:38;98396.88;;;23.31;73.87
13312;BME280;34033;48.672;9.376;2023-06-22T05:41:03;98402.41;;;23.34;73.39
13312;BME280;34033;48.672;9.376;2023-06-22T05:43:28;98401.94;;;23.45;73.41
13312;BME280;34033;48.672;9.376;2023-06-22T05:45:54;98402.44;;;23.52;73.25
13312;BME280;34033;48.672;9.376;2023-06-22T05:48:20;98397.19;;;23.51;72.64
13312;BME280;34033;48.672;9.376;2023-06-22T05:50:45;98400.97;;;23.39;73.13
13312;BME280;34033;48.672;9.376;2023-06-22T05:53:10;98406.41;;;23.46;72.59
13312;BME280;34033;48.672;9.376;2023-06-22T05:55:36;98398.13;;;23.39;72.58
13312;BME280;34033;48.672;9.376;2023-06-22T05:58:01;98402.09;;;23.50;72.17
13312;BME280;34033;48.672;9.376;2023-06-22T06:00:28;98398.41;;;23.68;71.37
13312;BME280;34033;48.672;9.376;2023-06-22T06:02:53;98400.28;;;23.71;71.36
13312;BME280;34033;48.672;9.376;2023-06-22T06:05:19;98397.06;;;23.87;70.51
13312;BME280;34033;48.672;9.376;2023-06-22T06:07:45;98389.16;;;23.91;70.18
13312;BME280;34033;48.672;9.376;2023-06-22T06:10:10;98391.63;;;24.07;69.33
13312;BME280;34033;48.672;9.376;2023-06-22T06:12:36;98398.88;;;24.18;69.26
13312;BME280;34033;48.672;9.376;2023-06-22T06:15:02;98397.88;;;24.30;68.47
13312;BME280;34033;48.672;9.376;2023-06-22T06:17:27;98392.56;;;24.37;67.73
13312;BME280;34033;48.672;9.376;2023-06-22T06:19:53;98390.25;;;24.27;67.64
13312;BME280;34033;48.672;9.376;2023-06-22T06:22:18;98396.34;;;24.20;67.70
13312;BME280;34033;48.672;9.376;2023-06-22T06:24:45;98396.22;;;24.05;68.49
13312;BME280;34033;48.672;9.376;2023-06-22T06:27:10;98400.66;;;24.06;68.41
13312;BME280;34033;48.672;9.376;2023-06-22T06:29:36;98394.88;;;24.24;67.72
13312;BME280;34033;48.672;9.376;2023-06-22T06:32:01;98396.88;;;24.42;67.12
13312;BME280;34033;48.672;9.376;2023-06-22T06:34:26;98395.28;;;24.41;66.83
13312;BME280;34033;48.672;9.376;2023-06-22T06:36:52;98394.13;;;24.47;66.36
13312;BME280;34033;48.672;9.376;2023-06-22T06:39:17;98378.38;;;24.52;66.54
13312;BME280;34033;48.672;9.376;2023-06-22T06:41:42;98388.69;;;24.26;67.29
13312;BME280;34033;48.672;9.376;2023-06-22T06:44:08;98393.38;;;24.38;67.05
13312;BME280;34033;48.672;9.376;2023-06-22T06:46:33;98379.41;;;24.40;66.43
13312;BME280;34033;48.672;9.376;2023-06-22T06:48:58;98376.00;;;24.50;66.44
13312;BME280;34033;48.672;9.376;2023-06-22T06:51:24;98384.25;;;24.48;66.41
13312;BME280;34033;48.672;9.376;2023-06-22T06:53:49;98386.75;;;24.56;65.65
13312;BME280;34033;48.672;9.376;2023-06-22T06:56:14;98388.72;;;24.73;65.23
13312;BME280;34033;48.672;9.376;2023-06-22T06:58:42;98377.03;;;24.86;64.45
13312;BME280;34033;48.672;9.376;2023-06-22T07:01:13;98375.50;;;25.00;64.42
13312;BME280;34033;48.672;9.376;2023-06-22T07:03:38;98374.25;;;25.15;63.96
13312;BME280;34033;48.672;9.376;2023-06-22T07:06:03;98369.63;;;25.18;63.31
13312;BME280;34033;48.672;9.376;2023-06-22T07:08:29;98371.78;;;25.23;63.42
13312;BME280;34033;48.672;9.376;2023-06-22T07:10:55;98380.38;;;25.08;63.89
13312;BME280;34033;48.672;9.376;2023-06-22T07:13:21;98367.34;;;25.22;63.43
13312;BME280;34033;48.672;9.376;2023-06-22T07:15:46;98374.34;;;25.21;63.34
13312;BME280;34033;48.672;9.376;2023-06-22T07:18:11;98381.44;;;25.25;63.05
13312;BME280;34033;48.672;9.376;2023-06-22T07:20:37;98370.91;;;25.31;63.39
13312;BME280;34033;48.672;9.376;2023-06-22T07:23:02;98371.22;;;25.48;63.01
13312;BME280;34033;48.672;9.376;2023-06-22T07:25:28;98365.81;;;25.65;62.24
13312;BME280;34033;48.672;9.376;2023-06-22T07:28:02;98372.63;;;25.67;61.65
13312;BME280;34033;48.672;9.376;2023-06-22T07:30:29;98363.66;;;25.74;61.80
13312;BME280;34033;48.672;9.376;2023-06-22T07:32:54;98343.09;;;25.76;61.16
13312;BME280;34033;48.672;9.376;2023-06-22T07:35:20;98345.75;;;25.80;61.27
13312;BME280;34033;48.672;9.376;2023-06-22T07:37:45;98339.59;;;25.87;60.88
13312;BME280;34033;48.672;9.376;2023-06-22T07:40:11;98336.91;;;25.98;60.81
13312;BME280;34033;48.672;9.376;2023-06-22T07:42:37;98332.03;;;26.19;60.91
13312;BME280;34033;48.672;9.376;2023-06-22T07:45:03;98319.03;;;26.38;60.02
13312;BME280;34033;48.672;9.376;2023-06-22T07:47:29;98322.91;;;26.55;59.27
13312;BME280;34033;48.672;9.376;2023-06-22T07:49:58;98310.31;;;26.67;58.60
13312;BME280;34033;48.672;9.376;2023-06-22T07:52:26;98301.84;;;26.78;58.76
13312;BME280;34033;48.672;9.376;2023-06-22T07:54:51;98295.72;;;26.91;59.04
13312;BME280;34033;48.672;9.376;2023-06-22T07:57:17;98297.75;;;26.85;56.90
13312;BME280;34033;48.672;9.376;2023-06-22T07:59:42;98295.59;;;27.00;56.59
13312;BME280;34033;48.672;9.376;2023-06-22T08:02:07;98288.19;;;27.19;56.45
13312;BME280;34033;48.672;9.376;2023-06-22T08:04:34;98287.56;;;27.35;55.33
13312;BME280;34033;48.672;9.376;2023-06-22T08:07:00;98279.91;;;27.53;54.64
13312;BME280;34033;48.672;9.376;2023-06-22T08:09:27;98277.13;;;27.64;53.84
13312;BME280;34033;48.672;9.376;2023-06-22T08:11:52;98275.69;;;27.79;52.94
13312;BME280;34033;48.672;9.376;2023-06-22T08:14:19;98273.47;;;27.95;52.76
13312;BME280;34033;48.672;9.376;2023-06-22T08:16:44;98278.75;;;28.07;52.54
13312;BME280;34033;48.672;9.376;2023-06-22T08:19:09;98280.16;;;28.23;51.86
13312;BME280;34033;48.672;9.376;2023-06-22T08:21:35;98281.56;;;28.39;51.72
13312;BME280;34033;48.672;9.376;2023-06-22T08:24:00;98280.31;;;28.56;51.27
13312;BME280;34033;48.672;9.376;2023-06-22T08:26:27;98290.31;;;28.67;51.05
13312;BME280;34033;48.672;9.376;2023-06-22T08:28:52;98288.28;;;28.78;50.75
13312;BME280;34033;48.672;9.376;2023-06-22T08:31:18;98307.88;;;28.74;49.59
13312;BME280;34033;48.672;9.376;2023-06-22T08:33:43;98310.53;;;28.83;49.33
13312;BME280;34033;48.672;9.376;2023-06-22T08:36:10;98308.69;;;28.80;49.39
13312;BME280;34033;48.672;9.376;2023-06-22T08:38:38;98324.41;;;28.90;49.88
13312;BME280;34033;48.672;9.376;2023-06-22T08:41:03;98318.97;;;29.03;50.06
13312;BME280;34033;48.672;9.376;2023-06-22T08:43:28;98339.38;;;29.00;49.30
13312;BME280;34033;48.672;9.376;2023-06-22T08:45:54;98347.66;;;28.81;50.23
13312;BME280;34033;48.672;9.376;2023-06-22T08:48:19;98354.03;;;29.08;50.42
13312;BME280;34033;48.672;9.376;2023-06-22T08:50:44;98356.91;;;29.08;50.39
13312;BME280;34033;48.672;9.376;2023-06-22T08:53:10;98371.63;;;29.21;50.42
13312;BME280;34033;48.672;9.376;2023-06-22T08:55:35;98378.63;;;29.09;50.40
13312;BME280;34033;48.672;9.376;2023-06-22T08:58:00;98375.53;;;29.29;50.11
13312;BME280;34033;48.672;9.376;2023-06-22T09:00:26;98372.47;;;29.38;49.19
13312;BME280;34033;48.672;9.376;2023-06-22T09:02:52;98362.69;;;29.13;49.54
13312;BME280;34033;48.672;9.376;2023-06-22T09:05:17;98353.19;;;28.90;50.49
13312;BME280;34033;48.672;9.376;2023-06-22T09:07:43;98350.06;;;28.94;49.95
13312;BME280;34033;48.672;9.376;2023-06-22T09:10:08;98342.75;;;28.98;50.35
13312;BME280;34033;48.672;9.376;2023-06-22T09:12:34;98342.28;;;29.28;50.14
13312;BME280;34033;48.672;9.376;2023-06-22T09:15:00;98332.19;;;29.60;49.58
13312;BME280;34033;48.672;9.376;2023-06-22T09:17:26;98336.88;;;29.85;48.40
13312;BME280;34033;48.672;9.376;2023-06-22T09:19:51;98338.50;;;30.03;48.25
13312;BME280;34033;48.672;9.376;2023-06-22T09:22:16;98330.63;;;30.15;47.78
13312;BME280;34033;48.672;9.376;2023-06-22T09:24:42;98325.09;;;30.06;47.93
13312;BME280;34033;48.672;9.376;2023-06-22T09:27:07;98335.03;;;30.10;47.79
13312;BME280;34033;48.672;9.376;2023-06-22T09:29:33;98340.56;;;30.14;47.69
13312;BME280;34033;48.672;9.376;2023-06-22T09:32:02;98342.16;;;30.09;47.56
13312;BME280;34033;48.672;9.376;2023-06-22T09:34:27;98338.50;;;29.98;48.76
13312;BME280;34033;48.672;9.376;2023-06-22T09:36:53;98318.81;;;30.07;48.80
13312;BME280;34033;48.672;9.376;2023-06-22T09:39:18;98318.53;;;30.11;48.98
13312;BME280;34033;48.672;9.376;2023-06-22T09:41:44;98310.41;;;30.26;48.34
13312;BME280;34033;48.672;9.376;2023-06-22T09:44:09;98303.81;;;30.42;48.12
13312;BME280;34033;48.672;9.376;2023-06-22T09:46:34;98303.22;;;30.60;47.54
13312;BME280;34033;48.672;9.376;2023-06-22T09:49:00;98307.56;;;30.89;47.28
13312;BME280;34033;48.672;9.376;2023-06-22T09:51:26;98304.38;;;31.04;46.46
13312;BME280;34033;48.672;9.376;2023-06-22T09:53:52;98308.59;;;31.03;47.32
13312;BME280;34033;48.672;9.376;2023-06-22T09:56:19;98309.50;;;31.22;46.93
13312;BME280;34033;48.672;9.376;2023-06-22T09:58:45;98309.44;;;31.33;45.89
13312;BME280;34033;48.672;9.376;2023-06-22T10:01:11;98302.41;;;31.23;46.20
13312;BME280;34033;48.672;9.376;2023-06-22T10:03:39;98297.13;;;31.27;45.76
13312;BME280;34033;48.672;9.376;2023-06-22T10:06:04;98303.97;;;31.24;45.79
13312;BME280;34033;48.672;9.376;2023-06-22T10:08:30;98299.94;;;31.38;45.52
13312;BME280;34033;48.672;9.376;2023-06-22T10:10:55;98283.19;;;31.67;45.52
13312;BME280;34033;48.672;9.376;2023-06-22T10:13:21;98286.34;;;31.69;43.94
13312;BME280;34033;48.672;9.376;2023-06-22T10:15:46;98277.06;;;31.76;44.57
13312;BME280;34033;48.672;9.376;2023-06-22T10:18:15;98281.31;;;31.75;44.15
13312;BME280;34033;48.672;9.376;2023-06-22T10:20:41;98279.63;;;32.09;44.01
13312;BME280;34033;48.672;9.376;2023-06-22T10:23:07;98279.06;;;32.41;44.07
13312;BME280;34033;48.672;9.376;2023-06-22T10:25:33;98273.25;;;32.65;43.67
13312;BME280;34033;48.672;9.376;2023-06-22T10:27:59;98263.28;;;32.85;43.37
13312;BME280;34033;48.672;9.376;2023-06-22T10:30:24;98253.81;;;32.84;42.62
13312;BME280;34033;48.672;9.376;2023-06-22T10:32:49;98258.59;;;33.00;41.98
13312;BME280;34033;48.672;9.376;2023-06-22T10:35:15;98252.63;;;33.11;42.11
13312;BME280;34033;48.672;9.376;2023-06-22T10:37:44;98253.69;;;33.46;41.61
13312;BME280;34033;48.672;9.376;2023-06-22T10:40:12;98258.63;;;33.83;41.40
13312;BME280;34033;48.672;9.376;2023-06-22T10:42:38;98245.63;;;34.16;40.40
13312;BME280;34033;48.672;9.376;2023-06-22T10:45:04;98242.53;;;34.40;39.71
13312;BME280;34033;48.672;9.376;2023-06-22T10:47:29;98233.00;;;34.53;39.00
13312;BME280;34033;48.672;9.376;2023-06-22T10:49:54;98228.22;;;34.42;39.01
13312;BME280;34033;48.672;9.376;2023-06-22T10:52:20;98228.03;;;34.40;38.38
13312;BME280;34033;48.672;9.376;2023-06-22T10:54:45;98227.13;;;34.45;38.37
13312;BME280;34033;48.672;9.376;2023-06-22T10:57:10;98220.75;;;34.47;38.93
13312;BME280;34033;48.672;9.376;2023-06-22T10:59:36;98221.94;;;34.64;38.58
13312;BME280;34033;48.672;9.376;2023-06-22T11:02:01;98221.84;;;34.83;38.46
13312;BME280;34033;48.672;9.376;2023-06-22T11:04:27;98219.22;;;34.93;38.21
13312;BME280;34033;48.672;9.376;2023-06-22T11:06:52;98222.56;;;34.97;38.06
13312;BME280;34033;48.672;9.376;2023-06-22T11:09:18;98221.84;;;35.17;37.89
13312;BME280;34033;48.672;9.376;2023-06-22T11:11:49;98224.00;;;35.03;36.44
13312;BME280;34033;48.672;9.376;2023-06-22T11:14:15;98227.66;;;35.17;37.26
13312;BME280;34033;48.672;9.376;2023-06-22T11:16:40;98222.72;;;35.46;37.27
13312;BME280;34033;48.672;9.376;2023-06-22T11:19:06;98225.78;;;35.61;36.54
13312;BME280;34033;48.672;9.376;2023-06-22T11:21:31;98227.28;;;35.75;36.84
13312;BME280;34033;48.672;9.376;2023-06-22T11:23:58;98222.47;;;35.78;36.39
13312;BME280;34033;48.672;9.376;2023-06-22T11:26:24;98231.66;;;35.89;36.21
13312;BME280;34033;48.672;9.376;2023-06-22T11:28:50;98232.28;;;35.95;36.08
13312;BME280;34033;48.672;9.376;2023-06-22T11:31:15;98227.31;;;36.04;36.18
13312;BME280;34033;48.672;9.376;2023-06-22T11:33:40;98221.13;;;36.07;35.69
13312;BME280;34033;48.672;9.376;2023-06-22T11:36:06;98220.78;;;36.11;36.11
13312;BME280;34033;48.672;9.376;2023-06-22T11:38:31;98209.88;;;36.04;36.15
13312;BME280;34033;48.672;9.376;2023-06-22T11:41:00;98194.63;;;35.90;35.88
13312;BME280;34033;48.672;9.376;2023-06-22T11:43:25;98187.28;;;35.89;36.07
13312;BME280;34033;48.672;9.376;2023-06-22T11:45:50;98195.47;;;35.98;35.82
13312;BME280;34033;48.672;9.376;2023-06-22T11:48:16;98181.97;;;35.80;35.76
13312;BME280;34033;48.672;9.376;2023-06-22T11:50:41;98187.22;;;35.61;35.46
13312;BME280;34033;48.672;9.376;2023-06-22T11:53:07;98184.38;;;35.47;36.07
13312;BME280;34033;48.672;9.376;2023-06-22T11:55:32;98193.88;;;35.27;36.12
13312;BME280;34033;48.672;9.376;2023-06-22T11:57:58;98193.78;;;35.20;36.13
13312;BME280;34033;48.672;9.376;2023-06-22T12:00:29;98193.34;;;35.15;35.66
13312;BME280;34033;48.672;9.376;2023-06-22T12:02:55;98202.84;;;35.16;36.26
13312;BME280;34033;48.672;9.376;2023-06-22T12:05:21;98215.63;;;35.00;37.07
13312;BME280;34033;48.672;9.376;2023-06-22T12:07:47;98195.91;;;35.19;37.02
13312;BME280;34033;48.672;9.376;2023-06-22T12:10:13;98183.81;;;35.49;36.69
13312;BME280;34033;48.672;9.376;2023-06-22T12:12:38;98172.25;;;35.77;36.52
13312;BME280;34033;48.672;9.376;2023-06-22T12:15:04;98168.56;;;36.05;36.07
13312;BME280;34033;48.672;9.376;2023-06-22T12:17:31;98169.63;;;36.15;35.31
13312;BME280;34033;48.672;9.376;2023-06-22T12:19:56;98171.19;;;36.16;35.41
13312;BME280;34033;48.672;9.376;2023-06-22T12:22:21;98166.31;;;35.90;35.27
13312;BME280;34033;48.672;9.376;2023-06-22T12:24:47;98166.78;;;35.53;35.52
13312;BME280;34033;48.672;9.376;2023-06-22T12:27:12;98174.47;;;35.09;35.26
13312;BME280;34033;48.672;9.376;2023-06-22T12:29:37;98181.06;;;35.09;35.70
13312;BME280;34033;48.672;9.376;2023-06-22T12:32:03;98189.31;;;34.85;35.75
13312;BME280;34033;48.672;9.376;2023-06-22T12:34:28;98193.84;;;34.72;35.99
13312;BME280;34033;48.672;9.376;2023-06-22T12:36:54;98209.69;;;34.71;36.32
13312;BME280;34033;48.672;9.376;2023-06-22T12:39:19;98196.84;;;34.67;37.11
13312;BME280;34033;48.672;9.376;2023-06-22T12:41:45;98198.28;;;34.60;36.59
13312;BME280;34033;48.672;9.376;2023-06-22T12:44:10;98210.25;;;34.30;37.13
13312;BME280;34033;48.672;9.376;2023-06-22T12:46:36;98218.50;;;34.13;37.81
13312;BME280;34033;48.672;9.376;2023-06-22T12:49:04;98239.44;;;33.93;37.77
13312;BME280;34033;48.672;9.376;2023-06-22T12:51:30;98242.13;;;33.59;38.44
13312;BME280;34033;48.672;9.376;2023-06-22T12:53:55;98239.72;;;33.63;38.99
13312;BME280;34033;48.672;9.376;2023-06-22T12:56:21;98246.16;;;33.56;40.50